Blue Cat — SVAR5 — position and weather

sailwx.info

Track history (hours):
 
Tides and Currents Weather Stations Pressure Air Temp Water Temp Dewpoint Dewpoint Depression Visibility Wind Speed Wind Dir Waves Ship Positions

Blue Cat

Last reported at 2014-Jun-20 16:26 UTC. Time now 2014-Nov-27 19:39 UTC.
Position N 49°18' W 123°04'.
Warning: this ship's position is months out of date.

Length 190 m; draft 6.6 m.

Type: Cargo ship. MMSI: 240940000.

Date/timePositionNaut miles runAvg speedWind from/ knotsBaromVisibWave heightAir tempDewpointWater temp
2014-Jun-20 16:26N 49°18' W 123°04'0 0.0
2014-Jun-20 15:32N 49°18' W 123°04'0 0.0
2014-Jun-20 14:32N 49°18' W 123°04'0 0.0
2014-Jun-20 13:32N 49°18' W 123°04'0 0.0
2014-Jun-20 12:32N 49°18' W 123°04'0 0.0
2014-Jun-20 11:32N 49°18' W 123°04'0 0.0
2014-Jun-20 10:32N 49°18' W 123°04'0 0.0
2014-Jun-20 09:32N 49°18' W 123°04'0 0.1
2014-Jun-20 08:32N 49°18' W 123°04'0 0.1
2014-Jun-20 07:32N 49°18' W 123°04'0 0.0
2014-Jun-20 06:32N 49°18' W 123°04'0 0.0
2014-Jun-20 05:32N 49°18' W 123°04'0 0.0
2014-Jun-20 04:32N 49°18' W 123°04'0 0.2
2014-Jun-20 03:33N 49°18' W 123°04'10 9.6
2014-Jun-20 02:33N 49°16' W 123°19'1313.3
2014-Jun-20 01:34N 49°03' W 123°19'1414.1
2014-Jun-20 00:33N 48°53' W 123°04'1010.2
2014-Jun-19 23:33N 48°44' W 123°09'1010.4
2014-Jun-19 22:33N 48°33' W 123°12'1010.3
2014-Jun-19 21:33N 48°23' W 123°14'5 4.5
2014-Jun-19 20:31N 48°21' W 123°21'0 0.1
2014-Jun-19 19:31N 48°21' W 123°21'0 0.1
2014-Jun-19 18:31N 48°21' W 123°21'0 0.1
2014-Jun-19 17:31N 48°21' W 123°21'0 0.1
2014-Jun-19 16:33N 48°21' W 123°20'3 2.8
2014-Jun-19 15:33N 48°20' W 123°24'7 7.2
2014-Jun-19 14:33N 48°14' W 123°30'9 8.8
2014-Jun-19 13:33N 48°14' W 123°43'1111.2
2014-Jun-19 12:33N 48°15' W 123°60'1312.7
2014-Jun-19 11:33N 48°20' W 124°17'1212.2
2014-Jun-19 10:33N 48°25' W 124°34'1211.8
2014-Jun-19 09:33N 48°29' W 124°51'1010.1
2014-Jun-19 08:32N 48°22' W 125°03'1212.5
2014-Jun-19 07:33N 48°11' W 125°10'1512.6
2014-Jun-19 06:23N 47°57' W 125°17'14210.7
2014-Jun-18 17:11N 45°35' W 125°14'1113.2
2014-Jun-18 16:19N 45°24' W 125°14'41612.3
2014-Jun-17 06:33N 38°30' W 124°17'1111.1
2014-Jun-17 05:33N 38°20' W 124°12'1010.4
2014-Jun-17 04:33N 38°10' W 124°08'1110.7
2014-Jun-17 03:30N 37°59' W 124°03'1111.4
2014-Jun-17 02:33N 37°49' W 123°58'1312.0
2014-Jun-17 01:30N 37°37' W 123°52'1212.3
2014-Jun-17 00:31N 37°26' W 123°47'8012.4
2014-Jun-16 18:05N 36°11' W 123°12'712.1
2014-Jun-16 17:30N 36°04' W 123°10'1412.3
2014-Jun-16 16:24N 35°52' W 123°04'2412.0
2014-Jun-16 14:25N 35°29' W 122°54'17911.7
2014-Jun-15 23:05N 32°44' W 121°28'712.3
2014-Jun-15 22:31N 32°39' W 121°23'4212.5
2014-Jun-15 19:08N 32°07' W 120°50'2012.4
2014-Jun-15 17:33N 31°53' W 120°35'1212.2
2014-Jun-15 16:34N 31°44' W 120°25'1211.9
2014-Jun-15 15:33N 31°35' W 120°16'1212.1
2014-Jun-15 14:33N 31°25' W 120°07'1212.2
2014-Jun-15 13:33N 31°16' W 119°57'1212.5
2014-Jun-15 12:33N 31°07' W 119°47'1212.2
2014-Jun-15 11:33N 30°58' W 119°38'1212.1
2014-Jun-15 10:32N 30°49' W 119°28'1212.3
2014-Jun-15 09:33N 30°39' W 119°20'1212.2
2014-Jun-15 08:33N 30°30' W 119°10'1212.2
2014-Jun-15 07:33N 30°21' W 119°01'1312.5
2014-Jun-15 06:33N 30°11' W 118°52'1212.5
2014-Jun-15 05:33N 30°02' W 118°43'1312.6
2014-Jun-15 04:33N 29°52' W 118°33'1312.9
2014-Jun-15 03:33N 29°43' W 118°23'1313.3
2014-Jun-15 02:33N 29°32' W 118°13'3213.4
2014-Jun-15 00:09N 29°08' W 117°49'813.3
2014-Jun-14 23:33N 29°02' W 117°43'1313.5
2014-Jun-14 22:34N 28°52' W 117°33'3313.9
2014-Jun-14 20:12N 28°27' W 117°09'18413.3
2014-Jun-14 06:20N 26°07' W 114°55'912.3
2014-Jun-14 05:34N 25°60' W 114°48'  
Track history (hours):
 
Tides and Currents Weather Stations Pressure Air Temp Water Temp Dewpoint Dewpoint Depression Visibility Wind Speed Wind Dir Waves Ship Positions

Blue Cat

Last reported at 2014-Jun-20 16:26 UTC. Time now 2014-Nov-27 19:39 UTC.
Position N 49°18' W 123°04'.
Warning: this ship's position is months out of date.

Length 190 m; draft 6.6 m.

Type: Cargo ship. MMSI: 240940000.

Date/timePositionNaut miles runAvg speedWind from/ knotsBaromVisibWave heightAir tempDewpointWater temp
2014-Jun-20 16:26N 49°18' W 123°04'0 0.0
2014-Jun-20 15:32N 49°18' W 123°04'0 0.0
2014-Jun-20 14:32N 49°18' W 123°04'0 0.0
2014-Jun-20 13:32N 49°18' W 123°04'0 0.0
2014-Jun-20 12:32N 49°18' W 123°04'0 0.0
2014-Jun-20 11:32N 49°18' W 123°04'0 0.0
2014-Jun-20 10:32N 49°18' W 123°04'0 0.0
2014-Jun-20 09:32N 49°18' W 123°04'0 0.1
2014-Jun-20 08:32N 49°18' W 123°04'0 0.1
2014-Jun-20 07:32N 49°18' W 123°04'0 0.0
2014-Jun-20 06:32N 49°18' W 123°04'0 0.0
2014-Jun-20 05:32N 49°18' W 123°04'0 0.0
2014-Jun-20 04:32N 49°18' W 123°04'0 0.2
2014-Jun-20 03:33N 49°18' W 123°04'10 9.6
2014-Jun-20 02:33N 49°16' W 123°19'1313.3
2014-Jun-20 01:34N 49°03' W 123°19'1414.1
2014-Jun-20 00:33N 48°53' W 123°04'1010.2
2014-Jun-19 23:33N 48°44' W 123°09'1010.4
2014-Jun-19 22:33N 48°33' W 123°12'1010.3
2014-Jun-19 21:33N 48°23' W 123°14'5 4.5
2014-Jun-19 20:31N 48°21' W 123°21'0 0.1
2014-Jun-19 19:31N 48°21' W 123°21'0 0.1
2014-Jun-19 18:31N 48°21' W 123°21'0 0.1
2014-Jun-19 17:31N 48°21' W 123°21'0 0.1
2014-Jun-19 16:33N 48°21' W 123°20'3 2.8
2014-Jun-19 15:33N 48°20' W 123°24'7 7.2
2014-Jun-19 14:33N 48°14' W 123°30'9 8.8
2014-Jun-19 13:33N 48°14' W 123°43'1111.2
2014-Jun-19 12:33N 48°15' W 123°60'1312.7
2014-Jun-19 11:33N 48°20' W 124°17'1212.2
2014-Jun-19 10:33N 48°25' W 124°34'1211.8
2014-Jun-19 09:33N 48°29' W 124°51'1010.1
2014-Jun-19 08:32N 48°22' W 125°03'1212.5
2014-Jun-19 07:33N 48°11' W 125°10'1512.6
2014-Jun-19 06:23N 47°57' W 125°17'14210.7
2014-Jun-18 17:11N 45°35' W 125°14'1113.2
2014-Jun-18 16:19N 45°24' W 125°14'41612.3
2014-Jun-17 06:33N 38°30' W 124°17'1111.1
2014-Jun-17 05:33N 38°20' W 124°12'1010.4
2014-Jun-17 04:33N 38°10' W 124°08'1110.7
2014-Jun-17 03:30N 37°59' W 124°03'1111.4
2014-Jun-17 02:33N 37°49' W 123°58'1312.0
2014-Jun-17 01:30N 37°37' W 123°52'1212.3
2014-Jun-17 00:31N 37°26' W 123°47'8012.4
2014-Jun-16 18:05N 36°11' W 123°12'712.1
2014-Jun-16 17:30N 36°04' W 123°10'1412.3
2014-Jun-16 16:24N 35°52' W 123°04'2412.0
2014-Jun-16 14:25N 35°29' W 122°54'17911.7
2014-Jun-15 23:05N 32°44' W 121°28'712.3
2014-Jun-15 22:31N 32°39' W 121°23'4212.5
2014-Jun-15 19:08N 32°07' W 120°50'2012.4
2014-Jun-15 17:33N 31°53' W 120°35'1212.2
2014-Jun-15 16:34N 31°44' W 120°25'1211.9
2014-Jun-15 15:33N 31°35' W 120°16'1212.1
2014-Jun-15 14:33N 31°25' W 120°07'1212.2
2014-Jun-15 13:33N 31°16' W 119°57'1212.5
2014-Jun-15 12:33N 31°07' W 119°47'1212.2
2014-Jun-15 11:33N 30°58' W 119°38'1212.1
2014-Jun-15 10:32N 30°49' W 119°28'1212.3
2014-Jun-15 09:33N 30°39' W 119°20'1212.2
2014-Jun-15 08:33N 30°30' W 119°10'1212.2
2014-Jun-15 07:33N 30°21' W 119°01'1312.5
2014-Jun-15 06:33N 30°11' W 118°52'1212.5
2014-Jun-15 05:33N 30°02' W 118°43'1312.6
2014-Jun-15 04:33N 29°52' W 118°33'1312.9
2014-Jun-15 03:33N 29°43' W 118°23'1313.3
2014-Jun-15 02:33N 29°32' W 118°13'3213.4
2014-Jun-15 00:09N 29°08' W 117°49'813.3
2014-Jun-14 23:33N 29°02' W 117°43'1313.5
2014-Jun-14 22:34N 28°52' W 117°33'3313.9
2014-Jun-14 20:12N 28°27' W 117°09'18413.3
2014-Jun-14 06:20N 26°07' W 114°55'912.3
2014-Jun-14 05:34N 25°60' W 114°48'  

Dump ship's entire track history